createdAt,value
2023-05-14T00:02:23.995Z,94.00
2023-05-14T00:04:52.441Z,94.20
2023-05-14T00:07:20.500Z,94.90
2023-05-14T00:09:49.744Z,96.30
2023-05-14T00:12:18.129Z,96.30
2023-05-14T00:14:46.262Z,95.80
2023-05-14T00:17:17.099Z,94.90
2023-05-14T00:19:45.499Z,94.50
2023-05-14T00:22:13.660Z,95.40
2023-05-14T00:24:41.838Z,95.00
2023-05-14T00:27:10.157Z,95.70
2023-05-14T00:29:38.456Z,96.20
2023-05-14T00:32:07.112Z,96.80
2023-05-14T00:34:36.290Z,97.40
2023-05-14T00:37:04.364Z,97.10
2023-05-14T00:39:32.778Z,96.40
2023-05-14T00:42:01.176Z,96.50
2023-05-14T00:44:29.611Z,96.40
2023-05-14T00:46:57.956Z,96.60
2023-05-14T00:49:28.902Z,96.90
2023-05-14T00:51:57.461Z,96.50
2023-05-14T00:54:26.456Z,96.40
2023-05-14T00:56:55.598Z,96.50
2023-05-14T00:59:23.801Z,96.70
2023-05-14T01:01:52.229Z,97.30
2023-05-14T01:04:20.767Z,97.00
2023-05-14T01:07:10.224Z,97.20
2023-05-14T01:09:52.886Z,97.40
2023-05-14T01:12:34.122Z,96.90
2023-05-14T01:15:27.185Z,97.60
2023-05-14T01:18:00.791Z,98.50
2023-05-14T01:20:29.085Z,99.90
2023-05-14T01:22:58.580Z,99.90
2023-05-14T01:25:27.319Z,99.90
2023-05-14T01:28:20.328Z,99.10
2023-05-14T01:30:58.342Z,98.70
2023-05-14T01:33:29.963Z,98.90
2023-05-14T01:35:58.342Z,99.70
2023-05-14T01:38:28.015Z,99.90
2023-05-14T01:40:57.269Z,99.90
2023-05-14T01:43:26.075Z,99.90
2023-05-14T01:45:54.529Z,99.90
2023-05-14T01:48:23.151Z,99.90
2023-05-14T01:50:52.160Z,99.90
2023-05-14T01:53:20.406Z,99.90
2023-05-14T01:55:48.790Z,99.90
2023-05-14T01:58:17.133Z,99.90
2023-05-14T02:00:45.419Z,99.90
2023-05-14T02:03:13.649Z,99.90
2023-05-14T02:05:42.024Z,99.90
2023-05-14T02:08:10.315Z,99.40
2023-05-14T02:10:38.750Z,99.90
2023-05-14T02:13:07.142Z,99.90
2023-05-14T02:15:35.267Z,99.90
2023-05-14T02:18:03.771Z,99.90
2023-05-14T02:20:32.060Z,99.90
2023-05-14T02:23:00.539Z,99.90
2023-05-14T02:25:28.865Z,99.90
2023-05-14T02:27:57.095Z,99.90
2023-05-14T02:30:25.630Z,99.90
2023-05-14T02:32:54.269Z,99.90
2023-05-14T02:35:22.760Z,99.90
2023-05-14T02:37:51.230Z,99.90
2023-05-14T02:40:19.424Z,99.90
2023-05-14T02:42:47.770Z,99.90
2023-05-14T02:45:16.253Z,99.90
2023-05-14T02:47:44.571Z,99.90
2023-05-14T02:50:12.862Z,99.90
2023-05-14T02:52:41.220Z,99.90
2023-05-14T02:55:09.911Z,99.90
2023-05-14T02:57:41.185Z,99.90
2023-05-14T03:00:10.001Z,99.90
2023-05-14T03:02:39.251Z,99.90
2023-05-14T03:05:08.453Z,99.90
2023-05-14T03:07:36.513Z,99.90
2023-05-14T03:10:05.018Z,99.90
2023-05-14T03:12:33.278Z,99.90
2023-05-14T03:15:01.624Z,99.90
2023-05-14T03:17:30.038Z,99.90
2023-05-14T03:19:58.228Z,99.90
2023-05-14T03:22:28.150Z,99.90
2023-05-14T03:24:56.481Z,99.90
2023-05-14T03:27:24.733Z,99.90
2023-05-14T03:29:53.027Z,99.90
2023-05-14T03:32:21.437Z,99.90
2023-05-14T03:34:49.552Z,99.90
2023-05-14T03:37:17.870Z,99.90
2023-05-14T03:39:46.110Z,99.90
2023-05-14T03:42:14.439Z,99.90
2023-05-14T03:44:42.608Z,99.90
2023-05-14T03:47:11.008Z,99.90
2023-05-14T03:49:39.192Z,99.50
2023-05-14T03:52:10.215Z,99.20
2023-05-14T03:54:38.525Z,99.60
2023-05-14T03:57:06.667Z,99.90
2023-05-14T03:59:35.056Z,99.90
2023-05-14T04:02:03.149Z,99.90
2023-05-14T04:04:31.466Z,99.50
2023-05-14T04:06:59.919Z,98.90
2023-05-14T04:09:29.764Z,99.00
2023-05-14T04:11:58.259Z,99.60
2023-05-14T04:14:26.461Z,99.90
2023-05-14T04:16:54.796Z,99.90
2023-05-14T04:19:23.050Z,99.90
2023-05-14T04:21:51.233Z,99.90
2023-05-14T04:24:19.533Z,99.90
2023-05-14T04:26:47.727Z,99.50
2023-05-14T04:29:15.889Z,99.90
2023-05-14T04:31:44.672Z,99.90
2023-05-14T04:34:12.980Z,99.90
2023-05-14T04:36:41.115Z,99.90
2023-05-14T04:39:09.422Z,99.90
2023-05-14T04:41:37.432Z,99.90
2023-05-14T04:44:06.006Z,99.90
2023-05-14T04:46:34.384Z,99.90
2023-05-14T04:49:02.743Z,99.90
2023-05-14T04:51:30.934Z,99.90
2023-05-14T04:53:59.098Z,99.90
2023-05-14T04:56:30.057Z,99.90
2023-05-14T04:58:58.215Z,99.90
2023-05-14T05:01:26.486Z,99.90
2023-05-14T05:03:54.818Z,99.70
2023-05-14T05:06:23.155Z,99.40
2023-05-14T05:08:51.299Z,99.90
2023-05-14T05:11:22.343Z,99.90
2023-05-14T05:13:51.477Z,99.90
2023-05-14T05:16:19.717Z,99.90
2023-05-14T05:18:48.088Z,99.90
2023-05-14T05:21:16.248Z,99.90
2023-05-14T05:23:44.495Z,99.40
2023-05-14T05:26:12.642Z,99.20
2023-05-14T05:28:41.043Z,99.60
2023-05-14T05:31:09.228Z,99.90
2023-05-14T05:33:37.404Z,99.90
2023-05-14T05:36:05.855Z,99.90
2023-05-14T05:38:34.231Z,99.90
2023-05-14T05:41:02.384Z,99.70
2023-05-14T05:43:30.521Z,99.00
2023-05-14T05:45:58.626Z,98.80
2023-05-14T05:48:26.888Z,99.30
2023-05-14T05:50:56.906Z,99.70
2023-05-14T05:53:25.186Z,99.90
2023-05-14T05:55:53.328Z,99.90
2023-05-14T05:58:21.690Z,99.40
2023-05-14T06:00:49.821Z,99.20
2023-05-14T06:03:18.113Z,98.80
2023-05-14T06:05:46.467Z,99.20
2023-05-14T06:08:14.770Z,99.80
2023-05-14T06:10:42.900Z,99.90
2023-05-14T06:13:11.090Z,99.90
2023-05-14T06:15:39.350Z,99.90
2023-05-14T06:18:07.673Z,99.90
2023-05-14T06:20:35.824Z,99.80
2023-05-14T06:23:04.055Z,99.50
2023-05-14T06:25:32.267Z,99.80
2023-05-14T06:28:00.644Z,99.90
2023-05-14T06:30:28.886Z,99.90
2023-05-14T06:32:57.306Z,99.90
2023-05-14T06:35:25.489Z,99.70
2023-05-14T06:37:53.738Z,98.90
2023-05-14T06:40:22.495Z,98.50
2023-05-14T06:42:51.210Z,99.00
2023-05-14T06:45:19.654Z,99.40
2023-05-14T06:47:47.975Z,99.50
2023-05-14T06:50:16.339Z,98.80
2023-05-14T06:52:44.503Z,98.00
2023-05-14T06:55:12.827Z,97.70
2023-05-14T06:57:44.019Z,98.10
2023-05-14T07:00:13.114Z,98.30
2023-05-14T07:02:41.394Z,98.40
2023-05-14T07:05:09.987Z,98.40
2023-05-14T07:07:38.213Z,98.10
2023-05-14T07:10:07.164Z,96.70
2023-05-14T07:12:35.430Z,94.90
2023-05-14T07:15:03.799Z,94.40
2023-05-14T07:17:32.019Z,94.40
2023-05-14T07:20:00.355Z,94.80
2023-05-14T07:22:28.701Z,95.20
2023-05-14T07:24:56.806Z,94.60
2023-05-14T07:27:25.208Z,93.30
2023-05-14T07:29:53.404Z,92.60
2023-05-14T07:32:21.491Z,92.60
2023-05-14T07:34:49.857Z,92.90
2023-05-14T07:37:18.093Z,92.30
2023-05-14T07:39:46.322Z,92.00
2023-05-14T07:42:22.074Z,90.90
2023-05-14T07:44:53.179Z,90.40
2023-05-14T07:47:21.608Z,88.30
2023-05-14T07:49:49.704Z,90.30
2023-05-14T07:52:18.063Z,89.70
2023-05-14T07:54:46.612Z,89.60
2023-05-14T07:57:15.813Z,89.40
2023-05-14T07:59:44.040Z,86.40
2023-05-14T08:02:12.390Z,81.60
2023-05-14T08:04:40.749Z,73.80
2023-05-14T08:07:09.214Z,71.70
2023-05-14T08:09:40.427Z,63.60
2023-05-14T08:12:08.979Z,53.20
2023-05-14T08:14:37.354Z,46.70
2023-05-14T08:17:05.946Z,30.00
2023-05-14T08:19:34.361Z,21.50
2023-05-14T08:22:02.599Z,14.80
2023-05-14T08:24:30.838Z,14.90
2023-05-14T08:26:59.487Z,15.90
2023-05-14T08:29:27.741Z,13.40
2023-05-14T08:31:56.193Z,12.90
2023-05-14T08:34:27.957Z,10.50
2023-05-14T08:36:56.267Z,6.30
2023-05-14T08:39:24.451Z,2.70
2023-05-14T08:41:53.211Z,7.30
2023-05-14T08:44:28.032Z,9.50
2023-05-14T08:46:56.770Z,6.90
2023-05-14T08:49:37.340Z,6.50
2023-05-14T08:52:06.002Z,13.40
2023-05-14T08:54:34.623Z,12.90
2023-05-14T08:57:05.404Z,6.20
2023-05-14T08:59:33.796Z,7.60
2023-05-14T09:02:03.602Z,8.30
2023-05-14T09:04:32.924Z,15.70
2023-05-14T09:07:02.649Z,16.90
2023-05-14T09:11:28.096Z,9.90
2023-05-14T09:13:56.541Z,17.90
2023-05-14T09:16:32.917Z,25.50
2023-05-14T09:19:01.275Z,13.80
2023-05-14T09:21:32.210Z,6.80
2023-05-14T09:24:01.951Z,3.80
2023-05-14T09:26:33.255Z,1.30
2023-05-14T09:29:02.810Z,1.00
2023-05-14T09:31:32.122Z,2.00
2023-05-14T09:44:10.562Z,1.00
2023-05-14T09:46:38.944Z,8.80
2023-05-14T09:49:07.028Z,23.70
2023-05-14T09:51:35.300Z,22.30
2023-05-14T09:54:05.767Z,29.20
2023-05-14T09:56:35.149Z,25.00
2023-05-14T09:59:04.228Z,28.30
2023-05-14T10:01:33.251Z,27.30
2023-05-14T10:04:04.542Z,30.90
2023-05-14T10:06:37.323Z,27.00
2023-05-14T10:09:11.985Z,26.30
2023-05-14T10:11:47.931Z,26.40
2023-05-14T10:14:25.706Z,32.20
2023-05-14T10:16:56.678Z,32.00
2023-05-14T10:19:34.161Z,28.90
2023-05-14T10:22:08.468Z,33.70
2023-05-14T10:24:38.161Z,29.40
2023-05-14T10:27:06.858Z,36.20
2023-05-14T10:29:36.570Z,37.30
2023-05-14T10:32:07.234Z,36.90
2023-05-14T10:34:44.498Z,38.00
2023-05-14T10:37:28.523Z,37.90
2023-05-14T10:40:05.749Z,40.70
2023-05-14T10:42:36.321Z,40.20
2023-05-14T10:45:13.693Z,41.70
2023-05-14T10:47:47.399Z,34.40
2023-05-14T10:50:17.310Z,39.20
2023-05-14T10:52:46.453Z,34.30
2023-05-14T10:55:16.878Z,40.30
2023-05-14T10:57:46.882Z,41.30
2023-05-14T11:00:16.164Z,43.80
2023-05-14T11:02:46.179Z,44.30
2023-05-14T11:05:16.342Z,43.50
2023-05-14T11:07:49.731Z,41.70
2023-05-14T11:10:20.540Z,45.00
2023-05-14T11:12:50.615Z,43.50
2023-05-14T11:15:23.515Z,44.50
2023-05-14T11:17:53.681Z,38.50
2023-05-14T11:20:22.384Z,42.30
2023-05-14T11:22:51.183Z,38.80
2023-05-14T11:25:19.504Z,43.20
2023-05-14T11:27:48.288Z,43.50
2023-05-14T11:30:20.871Z,49.70
2023-05-14T11:32:50.823Z,44.10
2023-05-14T11:35:23.780Z,43.90
2023-05-14T11:37:52.968Z,40.00
2023-05-14T11:40:21.784Z,40.00
2023-05-14T11:42:52.436Z,40.80
2023-05-14T11:45:29.693Z,40.00
2023-05-14T11:47:58.033Z,38.30
2023-05-14T11:50:26.642Z,44.80
2023-05-14T11:52:58.089Z,46.60
2023-05-14T11:55:26.088Z,43.80
2023-05-14T11:57:54.530Z,42.80
2023-05-14T12:00:23.101Z,48.20
2023-05-14T12:02:52.144Z,51.40
2023-05-14T12:05:20.989Z,47.70
2023-05-14T12:07:49.226Z,48.00
2023-05-14T12:10:17.448Z,45.90
2023-05-14T12:12:48.111Z,47.00
2023-05-14T12:15:17.739Z,48.00
2023-05-14T12:17:55.118Z,46.50
2023-05-14T12:20:25.704Z,45.20
2023-05-14T12:22:54.196Z,44.10
2023-05-14T12:25:22.514Z,49.40
2023-05-14T12:27:51.076Z,47.10
2023-05-14T12:30:21.613Z,50.10
2023-05-14T12:32:50.440Z,48.20
2023-05-14T12:35:18.859Z,53.50
2023-05-14T12:37:47.160Z,57.50
2023-05-14T12:40:15.487Z,57.80
2023-05-14T12:42:43.884Z,62.60
2023-05-14T12:45:12.618Z,56.80
2023-05-14T12:47:41.155Z,48.10
2023-05-14T12:50:09.752Z,51.50
2023-05-14T12:52:39.760Z,51.40
2023-05-14T12:55:09.482Z,53.80
2023-05-14T12:57:39.446Z,57.60
2023-05-14T13:00:09.886Z,56.80
2023-05-14T13:02:42.923Z,58.50
2023-05-14T13:05:14.971Z,62.20
2023-05-14T13:07:43.358Z,59.00
2023-05-14T13:10:11.901Z,58.00
2023-05-14T13:12:40.400Z,61.40
2023-05-14T13:15:09.073Z,61.50
2023-05-14T13:17:37.703Z,57.60
2023-05-14T13:20:06.720Z,56.60
2023-05-14T13:22:34.849Z,56.90
2023-05-14T13:25:03.552Z,56.90
2023-05-14T13:27:31.814Z,58.80
2023-05-14T13:30:00.183Z,61.30
2023-05-14T13:32:28.308Z,60.60
2023-05-14T13:34:56.805Z,57.70
2023-05-14T13:37:25.735Z,58.00
2023-05-14T13:39:53.834Z,58.90
2023-05-14T13:42:22.101Z,59.30
2023-05-14T13:44:50.885Z,58.40
2023-05-14T13:47:19.122Z,56.10
2023-05-14T13:49:47.395Z,52.80
2023-05-14T13:52:15.576Z,53.70
2023-05-14T13:54:43.965Z,58.50
2023-05-14T13:57:12.310Z,54.50
2023-05-14T13:59:40.709Z,54.00
2023-05-14T14:02:09.057Z,50.30
2023-05-14T14:04:37.663Z,52.00
2023-05-14T14:07:06.021Z,52.60
2023-05-14T14:09:34.302Z,52.10
2023-05-14T14:12:04.835Z,59.90
2023-05-14T14:14:33.199Z,57.90
2023-05-14T14:17:01.322Z,58.20
2023-05-14T14:19:29.632Z,59.50
2023-05-14T14:21:58.283Z,59.10
2023-05-14T14:24:26.513Z,58.40
2023-05-14T14:26:54.785Z,59.80
2023-05-14T14:29:22.991Z,55.00
2023-05-14T14:31:51.184Z,55.80
2023-05-14T14:34:19.528Z,59.70
2023-05-14T14:36:47.658Z,60.30
2023-05-14T14:39:15.885Z,60.80
2023-05-14T14:41:44.067Z,60.80
2023-05-14T14:44:12.726Z,65.70
2023-05-14T14:46:40.810Z,65.60
2023-05-14T14:49:09.353Z,65.30
2023-05-14T14:51:37.635Z,64.50
2023-05-14T14:54:05.965Z,65.70
2023-05-14T14:56:34.848Z,63.50
2023-05-14T14:59:03.028Z,64.00
2023-05-14T15:01:31.488Z,65.50
2023-05-14T15:03:59.760Z,63.70
2023-05-14T15:06:28.038Z,60.50
2023-05-14T15:08:56.137Z,61.40
2023-05-14T15:11:30.761Z,61.20
2023-05-14T15:13:59.092Z,60.30
2023-05-14T15:16:34.510Z,59.40
2023-05-14T15:19:03.121Z,60.30
2023-05-14T15:21:31.350Z,60.10
2023-05-14T15:23:59.743Z,54.00
2023-05-14T15:26:27.837Z,54.00
2023-05-14T15:28:56.574Z,55.00
2023-05-14T15:31:24.925Z,56.40
2023-05-14T15:33:54.184Z,58.50
2023-05-14T15:36:22.601Z,55.40
2023-05-14T15:38:51.248Z,57.30
2023-05-14T15:41:19.499Z,53.70
2023-05-14T15:43:56.375Z,56.30
2023-05-14T15:46:24.902Z,55.00
2023-05-14T15:48:53.024Z,56.40
2023-05-14T15:51:21.760Z,58.60
2023-05-14T15:53:50.726Z,53.80
2023-05-14T15:56:19.100Z,55.80
2023-05-14T15:58:47.210Z,58.10
2023-05-14T16:01:15.625Z,56.10
2023-05-14T16:03:44.027Z,56.80
2023-05-14T16:06:12.467Z,59.10
2023-05-14T16:08:40.608Z,59.70
2023-05-14T16:11:08.904Z,60.00
2023-05-14T16:13:37.125Z,58.80
2023-05-14T16:16:05.889Z,60.10
2023-05-14T16:18:34.602Z,60.60
2023-05-14T16:21:02.989Z,60.40
2023-05-14T16:23:31.375Z,62.30
2023-05-14T16:25:59.746Z,63.10
2023-05-14T16:28:28.322Z,62.60
2023-05-14T16:30:56.695Z,59.00
2023-05-14T16:33:25.010Z,59.10
2023-05-14T16:35:53.389Z,57.00
2023-05-14T16:38:21.625Z,59.50
2023-05-14T16:40:50.092Z,61.20
2023-05-14T16:43:18.718Z,63.70
2023-05-14T16:45:47.108Z,64.10
2023-05-14T16:48:15.392Z,62.00
2023-05-14T16:50:43.866Z,62.90
2023-05-14T16:53:11.969Z,63.20
2023-05-14T16:58:21.590Z,61.30
2023-05-14T17:00:50.783Z,58.30
2023-05-14T17:03:18.909Z,61.50
2023-05-14T17:05:47.400Z,61.30
2023-05-14T17:08:15.775Z,60.80
2023-05-14T17:10:44.018Z,61.40
2023-05-14T17:13:12.241Z,60.30
2023-05-14T17:15:40.744Z,59.90
2023-05-14T17:18:09.235Z,61.20
2023-05-14T17:20:37.707Z,61.00
2023-05-14T17:23:06.241Z,60.80
2023-05-14T17:25:34.584Z,61.00
2023-05-14T17:28:02.746Z,61.50
2023-05-14T17:30:31.169Z,61.40
2023-05-14T17:32:59.420Z,59.50
2023-05-14T17:35:28.077Z,58.80
2023-05-14T17:37:57.579Z,57.40
2023-05-14T17:40:26.811Z,57.30
2023-05-14T17:42:55.100Z,59.00
2023-05-14T17:45:25.082Z,57.60
2023-05-14T17:47:53.910Z,56.30
2023-05-14T17:50:22.195Z,58.70
2023-05-14T17:52:50.429Z,57.60
2023-05-14T17:55:18.948Z,57.10
2023-05-14T17:57:47.685Z,58.10
2023-05-14T18:00:16.026Z,60.20
2023-05-14T18:02:44.486Z,61.90
2023-05-14T18:05:12.832Z,62.50
2023-05-14T18:07:44.233Z,63.20
2023-05-14T18:10:12.446Z,61.60
2023-05-14T18:12:40.669Z,63.60
2023-05-14T18:15:09.245Z,62.80
2023-05-14T18:17:38.003Z,64.40
2023-05-14T18:20:07.642Z,65.00
2023-05-14T18:22:36.092Z,64.00
2023-05-14T18:25:04.754Z,64.20
2023-05-14T18:27:33.165Z,65.30
2023-05-14T18:30:01.323Z,65.20
2023-05-14T18:32:29.977Z,65.90
2023-05-14T18:34:58.371Z,68.00
2023-05-14T18:37:26.782Z,68.80
2023-05-14T18:39:54.863Z,66.70
2023-05-14T18:42:23.360Z,68.90
2023-05-14T18:44:51.896Z,70.30
2023-05-14T18:47:20.438Z,71.90
2023-05-14T18:49:48.657Z,71.20
2023-05-14T18:52:17.286Z,74.80
2023-05-14T18:54:45.785Z,74.30
2023-05-14T18:57:23.141Z,76.00
2023-05-14T18:59:51.520Z,76.60
2023-05-14T19:02:19.905Z,76.60
2023-05-14T19:04:52.623Z,80.70
2023-05-14T19:07:24.570Z,79.50
2023-05-14T19:09:53.525Z,80.30
2023-05-14T19:12:21.848Z,81.60
2023-05-14T19:14:50.149Z,82.70
2023-05-14T19:17:20.487Z,83.10
2023-05-14T19:19:49.120Z,84.50
2023-05-14T19:22:17.716Z,83.60
2023-05-14T19:24:46.024Z,84.20
2023-05-14T19:27:14.270Z,83.60
2023-05-14T19:29:43.044Z,85.60
2023-05-14T19:32:11.484Z,85.50
2023-05-14T19:34:39.897Z,86.70
2023-05-14T19:37:08.220Z,88.60
2023-05-14T19:39:36.470Z,89.60
2023-05-14T19:42:04.863Z,90.30
2023-05-14T19:44:33.211Z,88.70
2023-05-14T19:47:01.600Z,88.40
2023-05-14T19:49:29.735Z,86.80
2023-05-14T19:51:58.086Z,88.60
2023-05-14T19:54:26.375Z,89.90
2023-05-14T19:56:54.817Z,90.60
2023-05-14T19:59:23.115Z,91.20
2023-05-14T20:01:51.779Z,90.00
2023-05-14T20:04:20.101Z,90.20
2023-05-14T20:06:48.632Z,89.60
2023-05-14T20:09:17.043Z,90.00
2023-05-14T20:11:45.398Z,90.40
2023-05-14T20:14:13.706Z,90.20
2023-05-14T20:16:42.362Z,90.00
2023-05-14T20:19:10.660Z,86.50
2023-05-14T20:21:41.823Z,81.80
2023-05-14T20:24:10.210Z,84.10
2023-05-14T20:26:38.406Z,88.30
2023-05-14T20:32:08.244Z,65.50
2023-05-14T20:34:36.202Z,69.30
2023-05-14T20:37:05.085Z,71.90
2023-05-14T20:39:33.712Z,70.60
2023-05-14T20:42:02.209Z,72.70
2023-05-14T20:44:30.484Z,74.90
2023-05-14T20:46:58.942Z,81.00
2023-05-14T20:49:27.200Z,85.10
2023-05-14T20:51:55.659Z,88.20
2023-05-14T20:54:24.046Z,90.30
2023-05-14T20:56:52.469Z,90.20
2023-05-14T20:59:20.777Z,88.20
2023-05-14T21:01:49.080Z,83.40
2023-05-14T21:04:18.680Z,84.00
2023-05-14T21:06:47.828Z,84.30
2023-05-14T21:09:16.351Z,84.50
2023-05-14T21:11:44.661Z,83.50
2023-05-14T21:14:12.894Z,83.40
2023-05-14T21:16:41.179Z,84.30
2023-05-14T21:19:09.783Z,83.90
2023-05-14T21:21:40.818Z,85.10
2023-05-14T21:24:09.356Z,86.30
2023-05-14T21:26:38.066Z,85.60
2023-05-14T21:29:06.430Z,84.30
2023-05-14T21:31:34.740Z,83.30
2023-05-14T21:34:03.141Z,85.80
2023-05-14T21:36:31.402Z,85.90
2023-05-14T21:38:59.764Z,86.80
2023-05-14T21:41:27.977Z,87.10
2023-05-14T21:43:56.364Z,88.10
2023-05-14T21:46:24.750Z,86.10
2023-05-14T21:48:53.320Z,86.20
2023-05-14T21:51:21.525Z,85.60
2023-05-14T21:53:49.634Z,85.80
2023-05-14T21:56:17.942Z,89.50
2023-05-14T21:58:46.213Z,87.30
2023-05-14T22:01:15.156Z,87.70
2023-05-14T22:03:43.486Z,87.30
2023-05-14T22:06:11.887Z,88.10
2023-05-14T22:08:40.298Z,85.90
2023-05-14T22:11:08.597Z,89.50
2023-05-14T22:13:37.111Z,90.20
2023-05-14T22:16:12.700Z,90.20
2023-05-14T22:18:42.239Z,90.50
2023-05-14T22:21:10.460Z,91.80
2023-05-14T22:23:38.659Z,90.40
2023-05-14T22:26:07.192Z,90.50
2023-05-14T22:28:35.377Z,90.60
2023-05-14T22:31:03.754Z,89.70
2023-05-14T22:33:32.888Z,90.40
2023-05-14T22:36:01.020Z,91.20
2023-05-14T22:38:29.476Z,91.80
2023-05-14T22:40:57.936Z,91.10
2023-05-14T22:43:26.253Z,88.90
2023-05-14T22:45:54.466Z,89.70
2023-05-14T22:48:22.884Z,89.30
2023-05-14T22:50:51.079Z,90.10
2023-05-14T22:53:19.288Z,90.70
2023-05-14T22:55:47.727Z,91.40
2023-05-14T22:58:15.807Z,91.30
2023-05-14T23:00:44.145Z,90.40
2023-05-14T23:03:12.779Z,91.80
2023-05-14T23:05:41.004Z,93.40
2023-05-14T23:08:09.331Z,94.50
2023-05-14T23:10:37.759Z,95.50
2023-05-14T23:13:05.882Z,94.20
2023-05-14T23:15:34.292Z,93.40
2023-05-14T23:18:02.827Z,93.10
2023-05-14T23:20:31.091Z,92.60
2023-05-14T23:22:59.231Z,92.80
2023-05-14T23:25:27.580Z,92.50
2023-05-14T23:27:55.753Z,94.10
2023-05-14T23:30:23.963Z,94.70
2023-05-14T23:32:52.989Z,95.10
2023-05-14T23:35:21.117Z,94.00
2023-05-14T23:37:49.443Z,94.70
2023-05-14T23:40:18.622Z,91.20
2023-05-14T23:42:46.883Z,90.80
2023-05-14T23:45:15.204Z,90.40
2023-05-14T23:47:43.721Z,90.30
2023-05-14T23:50:11.966Z,90.10
2023-05-14T23:52:40.254Z,90.40
2023-05-14T23:55:08.995Z,91.30
2023-05-14T23:57:37.301Z,90.30
